createdAt,value
2023-05-02T00:04:23.627Z,6.12
2023-05-02T00:09:46.199Z,6.40
2023-05-02T00:15:08.596Z,6.43
2023-05-02T00:20:31.641Z,6.17
2023-05-02T00:25:57.759Z,6.60
2023-05-02T00:31:20.259Z,5.92
2023-05-02T00:36:43.329Z,5.67
2023-05-02T00:42:12.147Z,5.80
2023-05-02T00:47:34.645Z,7.13
2023-05-02T00:52:57.478Z,5.60
2023-05-02T00:58:25.902Z,5.87
2023-05-02T01:04:24.917Z,5.93
2023-05-02T01:10:25.094Z,6.03
2023-05-02T01:15:49.366Z,6.40
2023-05-02T01:21:15.826Z,5.62
2023-05-02T01:27:09.012Z,6.10
2023-05-02T01:32:35.020Z,5.95
2023-05-02T01:38:09.028Z,6.87
2023-05-02T01:43:34.365Z,5.97
2023-05-02T01:48:58.369Z,6.03
2023-05-02T01:54:23.819Z,6.47
2023-05-02T01:59:48.801Z,5.40
2023-05-02T02:05:12.587Z,5.87
2023-05-02T02:10:36.930Z,5.93
2023-05-02T02:16:04.247Z,5.40
2023-05-02T02:21:29.840Z,5.60
2023-05-02T02:26:53.839Z,5.83
2023-05-02T02:32:16.484Z,6.03
2023-05-02T02:37:48.534Z,5.53
2023-05-02T02:43:33.849Z,6.40
2023-05-02T02:49:13.073Z,6.93
2023-05-02T02:54:45.835Z,6.00
2023-05-02T03:00:26.111Z,6.33
2023-05-02T03:05:50.075Z,6.10
2023-05-02T03:11:12.364Z,6.20
2023-05-02T03:16:54.222Z,5.63
2023-05-02T03:22:17.145Z,4.80
2023-05-02T03:27:40.945Z,5.13
2023-05-02T03:33:05.140Z,5.77
2023-05-02T03:38:28.329Z,6.42
2023-05-02T03:43:51.123Z,5.92
2023-05-02T03:49:13.979Z,5.70
2023-05-02T03:54:38.228Z,6.03
2023-05-02T04:00:01.178Z,5.73
2023-05-02T04:05:24.006Z,6.13
2023-05-02T04:10:46.672Z,6.05
2023-05-02T04:16:09.136Z,5.65
2023-05-02T04:21:32.253Z,6.13
2023-05-02T04:26:54.605Z,6.67
2023-05-02T04:32:17.759Z,6.57
2023-05-02T04:37:40.108Z,6.85
2023-05-02T04:43:02.348Z,6.55
2023-05-02T04:48:25.861Z,6.70
2023-05-02T04:53:48.159Z,7.33
2023-05-02T04:59:10.655Z,7.50
2023-05-02T05:04:32.913Z,7.67
2023-05-02T05:09:55.161Z,7.73
2023-05-02T05:15:17.594Z,7.27
2023-05-02T05:20:39.981Z,8.48
2023-05-02T05:26:02.239Z,7.47
2023-05-02T05:31:28.261Z,8.50
2023-05-02T05:36:52.840Z,8.18
2023-05-02T05:42:15.085Z,7.50
2023-05-02T05:47:40.525Z,8.00
2023-05-02T05:53:03.326Z,8.48
2023-05-02T05:58:26.199Z,8.05
2023-05-02T06:03:48.728Z,8.65
2023-05-02T06:09:12.235Z,9.05
2023-05-02T06:14:34.867Z,8.80
2023-05-02T06:19:57.443Z,8.57
2023-05-02T06:25:21.624Z,8.37
2023-05-02T06:30:44.105Z,8.58
2023-05-02T06:36:08.395Z,9.37
2023-05-02T06:41:34.107Z,9.80
2023-05-02T06:46:56.459Z,8.70
2023-05-02T06:52:18.734Z,8.45
2023-05-02T06:57:41.782Z,8.90
2023-05-02T07:03:05.738Z,8.73
2023-05-02T07:08:30.214Z,8.45
2023-05-02T07:13:52.487Z,9.43
2023-05-02T07:19:15.165Z,9.13
2023-05-02T07:24:37.560Z,8.57
2023-05-02T07:30:00.320Z,8.90
2023-05-02T07:35:23.413Z,8.50
2023-05-02T07:40:47.251Z,8.40
2023-05-02T07:46:12.860Z,7.30
2023-05-02T07:51:35.206Z,7.07
2023-05-02T07:56:59.776Z,6.57
2023-05-02T08:02:23.795Z,7.67
2023-05-02T08:07:46.957Z,8.40
2023-05-02T08:13:09.200Z,8.25
2023-05-02T08:18:32.098Z,8.83
2023-05-02T08:23:54.920Z,7.70
2023-05-02T08:29:17.267Z,7.90
2023-05-02T08:34:39.736Z,5.00
2023-05-02T08:40:03.091Z,4.57
2023-05-02T08:45:27.990Z,3.47
2023-05-02T08:50:52.664Z,2.50
2023-05-02T08:56:15.858Z,2.90
2023-05-02T09:01:40.625Z,2.90
2023-05-02T09:07:03.314Z,2.58
2023-05-02T09:12:27.853Z,2.13
2023-05-02T09:17:53.761Z,2.30
2023-05-02T09:23:16.381Z,2.40
2023-05-02T09:28:50.033Z,3.12
2023-05-02T09:34:26.503Z,3.30
2023-05-02T09:39:48.795Z,3.10
2023-05-02T09:45:11.340Z,2.90
2023-05-02T09:50:45.183Z,3.02
2023-05-02T09:56:26.135Z,3.43
2023-05-02T10:01:49.010Z,3.33
2023-05-02T10:07:15.024Z,3.40
2023-05-02T10:12:41.151Z,3.57
2023-05-02T10:18:06.471Z,2.60
2023-05-02T10:23:31.613Z,2.37
2023-05-02T10:28:54.999Z,2.37
2023-05-02T10:34:19.415Z,2.70
2023-05-02T10:39:42.513Z,2.60
2023-05-02T10:45:06.390Z,2.40
2023-05-02T10:50:29.488Z,2.62
2023-05-02T10:55:52.982Z,3.08
2023-05-02T11:01:38.016Z,2.83
2023-05-02T11:07:23.863Z,3.10
2023-05-02T11:13:06.943Z,3.07
2023-05-02T11:18:29.748Z,3.43
2023-05-02T11:23:51.992Z,3.47
2023-05-02T11:29:14.230Z,3.60
2023-05-02T11:34:39.548Z,3.10
2023-05-02T11:40:03.482Z,3.58
2023-05-02T11:45:27.009Z,3.30
2023-05-02T11:50:58.107Z,2.60
2023-05-02T11:56:21.563Z,2.62
2023-05-02T12:01:43.808Z,2.62
2023-05-02T12:07:18.345Z,2.37
2023-05-02T12:12:41.444Z,2.13
2023-05-02T12:18:05.365Z,2.20
2023-05-02T12:23:28.714Z,2.00
2023-05-02T12:29:03.098Z,2.00
2023-05-02T12:34:41.561Z,3.10
2023-05-02T12:40:04.220Z,2.87
2023-05-02T12:45:37.553Z,3.93
2023-05-02T12:51:01.612Z,3.93
2023-05-02T12:56:25.129Z,4.30
2023-05-02T13:01:47.404Z,4.47
2023-05-02T13:07:10.095Z,4.57
2023-05-02T13:12:33.757Z,4.93
2023-05-02T13:17:57.752Z,4.17
2023-05-02T13:23:20.348Z,5.40
2023-05-02T13:28:42.733Z,5.80
2023-05-02T13:34:05.386Z,4.60
2023-05-02T13:39:27.942Z,5.70
2023-05-02T13:44:50.274Z,5.00
2023-05-02T13:50:13.213Z,5.40
2023-05-02T13:55:36.214Z,4.25
2023-05-02T14:00:58.685Z,3.47
2023-05-02T14:06:21.030Z,3.50
2023-05-02T14:11:44.667Z,2.65
2023-05-02T14:17:08.262Z,2.80
2023-05-02T14:22:30.840Z,2.63
2023-05-02T14:27:53.637Z,2.20
2023-05-02T14:33:16.191Z,1.92
2023-05-02T14:38:38.614Z,1.77
2023-05-02T14:44:01.634Z,2.00
2023-05-02T14:49:25.533Z,1.67
2023-05-02T14:54:48.513Z,1.70
2023-05-02T15:00:11.424Z,1.60
2023-05-02T15:05:34.252Z,1.57
2023-05-02T15:10:59.082Z,1.57
2023-05-02T15:16:22.494Z,1.50
2023-05-02T15:21:44.936Z,1.67
2023-05-02T15:27:07.382Z,1.20
2023-05-02T15:32:31.010Z,1.30
2023-05-02T15:37:54.070Z,1.30
2023-05-02T15:43:16.338Z,1.70
2023-05-02T15:48:42.731Z,2.10
2023-05-02T15:54:06.665Z,2.23
2023-05-02T15:59:29.009Z,2.00
2023-05-02T16:04:51.398Z,2.20
2023-05-02T16:10:14.681Z,2.15
2023-05-02T16:15:37.184Z,1.90
2023-05-02T16:21:00.459Z,2.07
2023-05-02T16:26:22.763Z,1.60
2023-05-02T16:31:45.047Z,2.30
2023-05-02T16:37:07.367Z,2.27
2023-05-02T16:42:29.741Z,2.10
2023-05-02T16:47:53.060Z,2.40
2023-05-02T16:53:16.335Z,2.30
2023-05-02T16:58:40.710Z,2.20
2023-05-02T17:04:02.987Z,2.05
2023-05-02T17:09:25.706Z,2.25
2023-05-02T17:14:48.013Z,2.40
2023-05-02T17:20:12.088Z,2.22
2023-05-02T17:25:34.896Z,2.27
2023-05-02T17:30:58.787Z,2.47
2023-05-02T17:36:21.192Z,2.10
2023-05-02T17:41:43.865Z,2.63
2023-05-02T17:47:06.780Z,2.40
2023-05-02T17:52:29.548Z,2.20
2023-05-02T17:57:52.554Z,2.33
2023-05-02T18:03:15.523Z,2.53
2023-05-02T18:08:38.036Z,2.47
2023-05-02T18:14:01.992Z,2.77
2023-05-02T18:19:24.324Z,2.65
2023-05-02T18:24:46.707Z,2.67
2023-05-02T18:30:09.633Z,2.30
2023-05-02T18:35:31.870Z,2.57
2023-05-02T18:40:54.682Z,3.30
2023-05-02T18:46:17.155Z,2.90
2023-05-02T18:51:39.505Z,2.67
2023-05-02T18:57:03.308Z,3.12
2023-05-02T19:02:28.049Z,3.20
2023-05-02T19:07:50.861Z,3.62
2023-05-02T19:13:14.701Z,3.40
2023-05-02T19:18:37.109Z,3.58
2023-05-02T19:24:00.237Z,3.17
2023-05-02T19:29:22.531Z,3.05
2023-05-02T19:34:45.072Z,3.37
2023-05-02T19:40:07.482Z,3.20
2023-05-02T19:45:30.008Z,3.37
2023-05-02T19:50:52.327Z,10.65
2023-05-02T19:56:15.349Z,2.72
2023-05-02T20:01:38.257Z,3.30
2023-05-02T20:07:01.705Z,3.22
2023-05-02T20:12:24.073Z,3.70
2023-05-02T20:17:46.408Z,3.30
2023-05-02T20:23:08.742Z,3.70
2023-05-02T20:28:31.183Z,11.20
2023-05-02T20:33:53.403Z,3.50
2023-05-02T20:39:16.292Z,3.25
2023-05-02T20:44:39.455Z,2.85
2023-05-02T20:50:02.445Z,2.70
2023-05-02T20:55:26.510Z,3.22
2023-05-02T21:00:50.544Z,2.85
2023-05-02T21:06:14.529Z,3.10
2023-05-02T21:11:37.494Z,2.77
2023-05-02T21:17:00.460Z,2.58
2023-05-02T21:22:22.765Z,2.67
2023-05-02T21:27:45.359Z,2.50
2023-05-02T21:33:07.957Z,2.90
2023-05-02T21:38:31.092Z,2.90
2023-05-02T21:43:55.325Z,2.65
2023-05-02T21:49:18.276Z,2.45
2023-05-02T21:54:40.857Z,2.50
2023-05-02T22:00:05.809Z,2.25
2023-05-02T22:05:29.352Z,2.55
2023-05-02T22:10:53.479Z,2.95
2023-05-02T22:16:16.470Z,3.20
2023-05-02T22:21:39.259Z,2.87
2023-05-02T22:27:03.138Z,3.22
2023-05-02T22:32:27.150Z,2.77
2023-05-02T22:37:50.333Z,2.42
2023-05-02T22:43:13.551Z,2.70
2023-05-02T22:48:37.221Z,2.00
2023-05-02T22:54:00.190Z,2.87
2023-05-02T22:59:23.540Z,2.22
2023-05-02T23:04:46.785Z,2.40
2023-05-02T23:10:09.710Z,2.45
2023-05-02T23:15:32.241Z,2.45
2023-05-02T23:20:55.030Z,2.52
2023-05-02T23:26:19.057Z,2.50
2023-05-02T23:31:42.613Z,2.85
2023-05-02T23:37:07.188Z,2.62
2023-05-02T23:42:30.005Z,2.80
2023-05-02T23:47:52.715Z,2.50
2023-05-02T23:53:15.108Z,2.25
2023-05-02T23:58:37.906Z,2.95
